Time;durP1;ratioP1;P1;durP2;ratioP2;P2;SDS_P1;SDS_P2;PMS_P1;PMS_P2;Temp;Humidity;BMP_temperature;BMP_pressure;BME280_temperature;BME280_humidity;BME280_pressure;Samples;Min_cycle;Max_cycle;Signal;HPM_P1;HPM_P2
2021/10/06 00:00:25;;;;;;;;;;;23.90;48.60;;;;;;1520994;78;702;-57
2021/10/06 00:02:27;;;;;;;;;;;24.00;48.60;;;;;;1520890;78;1930;-58
2021/10/06 00:04:29;;;;;;;;;;;24.00;48.60;;;;;;1524219;75;1175;-59
2021/10/06 00:06:31;;;;;;;;;;;23.90;48.60;;;;;;1559790;75;733;-58
2021/10/06 00:08:33;;;;;;;;;;;23.90;48.60;;;;;;1547422;75;777;-57
2021/10/06 00:10:35;;;;;;;;;;;23.90;48.60;;;;;;1547428;76;725;-59
2021/10/06 00:12:37;;;;;;;;;;;24.00;48.60;;;;;;1545978;75;696;-60
2021/10/06 00:14:39;;;;;;;;;;;24.00;48.60;;;;;;1542848;75;1172;-59
2021/10/06 00:16:41;;;;;;;;;;;24.00;48.60;;;;;;1546598;75;746;-59
2021/10/06 00:18:43;;;;;;;;;;;23.90;48.60;;;;;;1548087;75;784;-58
2021/10/06 00:20:45;;;;;;;;;;;23.90;48.60;;;;;;1548400;75;708;-58
2021/10/06 00:22:47;;;;;;;;;;;24.00;48.60;;;;;;1546698;75;1902;-58
2021/10/06 00:24:49;;;;;;;;;;;23.90;48.60;;;;;;1547995;75;1157;-59
2021/10/06 00:26:50;;;;;;;;;;;24.00;48.60;;;;;;1552077;75;648;-58
2021/10/06 00:28:52;;;;;;;;;;;23.90;48.60;;;;;;1544128;75;703;-57
2021/10/06 00:30:54;;;;;;;;;;;24.00;48.60;;;;;;1546094;75;642;-57
2021/10/06 00:32:56;;;;;;;;;;;23.90;48.60;;;;;;1543951;75;740;-57
2021/10/06 00:34:58;;;;;;;;;;;24.00;48.60;;;;;;1550749;75;1078;-58
2021/10/06 00:37:00;;;;;;;;;;;23.90;48.60;;;;;;1548324;75;727;-59
2021/10/06 00:39:02;;;;;;;;;;;23.90;48.60;;;;;;1548343;75;739;-59
2021/10/06 00:41:04;;;;;;;;;;;23.90;48.60;;;;;;1546209;75;704;-59
2021/10/06 00:43:06;;;;;;;;;;;23.90;48.60;;;;;;1548322;75;1930;-59
2021/10/06 00:45:08;;;;;;;;;;;24.00;48.60;;;;;;1548194;75;1152;-58
2021/10/06 00:47:10;;;;;;;;;;;23.90;48.60;;;;;;1546709;75;667;-58
2021/10/06 00:49:13;;;;;;;;;;;23.90;48.60;;;;;;1549876;75;647;-60
2021/10/06 00:51:16;;;;;;;;;;;24.00;48.60;;;;;;1544007;75;755;-57
2021/10/06 00:53:18;;;;;;;;;;;23.90;48.60;;;;;;1548186;75;776;-57
2021/10/06 00:55:20;;;;;;;;;;;23.90;48.60;;;;;;1548079;75;1102;-58
2021/10/06 00:57:22;;;;;;;;;;;23.90;48.60;;;;;;1546041;75;808;-58
2021/10/06 00:59:24;;;;;;;;;;;23.90;48.60;;;;;;1545666;75;717;-58
2021/10/06 01:01:25;;;;;;;;;;;23.90;48.60;;;;;;1545700;75;757;-58
2021/10/06 01:03:27;;;;;;;;;;;23.90;48.60;;;;;;1546167;75;1933;-60
2021/10/06 01:05:30;;;;;;;;;;;23.90;48.70;;;;;;1535742;75;219948;-79
2021/10/06 01:07:33;;;;;;;;;;;23.90;48.70;;;;;;1547500;74;697;-77
2021/10/06 01:09:35;;;;;;;;;;;23.90;48.70;;;;;;1571715;73;673;-76
2021/10/06 01:11:37;;;;;;;;;;;23.90;48.70;;;;;;1553412;76;1043;-78
2021/10/06 01:13:39;;;;;;;;;;;23.90;48.70;;;;;;1562902;74;724;-76
2021/10/06 01:15:41;;;;;;;;;;;23.90;48.70;;;;;;1560875;75;1212;-76
2021/10/06 01:17:43;;;;;;;;;;;23.90;48.70;;;;;;1559103;72;224985;-61
2021/10/06 01:19:45;;;;;;;;;;;23.90;48.70;;;;;;1523977;76;756;-59
2021/10/06 01:21:47;;;;;;;;;;;23.90;48.70;;;;;;1545664;76;714;-55
2021/10/06 01:23:49;;;;;;;;;;;23.90;48.70;;;;;;1558772;76;1942;-57
2021/10/06 01:25:51;;;;;;;;;;;23.90;48.60;;;;;;1523161;77;739;-60
2021/10/06 01:27:53;;;;;;;;;;;23.90;48.70;;;;;;1484336;77;763;-59
2021/10/06 01:29:55;;;;;;;;;;;23.90;48.60;;;;;;1482649;79;768;-59
2021/10/06 01:31:57;;;;;;;;;;;23.90;48.70;;;;;;1508564;79;808;-58
2021/10/06 01:33:58;;;;;;;;;;;23.90;48.60;;;;;;1513274;77;1136;-57
2021/10/06 01:36:00;;;;;;;;;;;23.90;48.70;;;;;;1521481;77;767;-56
2021/10/06 01:38:02;;;;;;;;;;;23.90;48.70;;;;;;1505416;77;736;-56
2021/10/06 01:40:05;;;;;;;;;;;23.90;48.70;;;;;;1532943;77;725;-59
2021/10/06 01:42:07;;;;;;;;;;;23.90;48.80;;;;;;1532526;77;641;-56
2021/10/06 01:44:10;;;;;;;;;;;23.90;48.70;;;;;;1517378;77;1948;-61
2021/10/06 01:46:12;;;;;;;;;;;23.90;48.70;;;;;;1483270;80;781;-57
2021/10/06 01:48:14;;;;;;;;;;;23.90;48.70;;;;;;1482967;80;679;-58
2021/10/06 01:50:23;;;;;;;;;;;23.90;48.70;;;;;;1483193;80;767;-59
2021/10/06 01:52:24;;;;;;;;;;;23.90;48.70;;;;;;1482755;79;694;-59
2021/10/06 01:54:26;;;;;;;;;;;23.80;48.60;;;;;;1483262;79;1120;-60
2021/10/06 01:56:28;;;;;;;;;;;23.90;48.80;;;;;;1484549;77;632;-59
2021/10/06 01:58:30;;;;;;;;;;;23.90;48.70;;;;;;1482923;79;737;-58
2021/10/06 02:00:32;;;;;;;;;;;23.90;48.80;;;;;;1483253;80;789;-56
2021/10/06 02:02:34;;;;;;;;;;;23.90;48.70;;;;;;1483080;80;755;-57
2021/10/06 02:04:36;;;;;;;;;;;23.90;48.70;;;;;;1495524;77;1946;-58
2021/10/06 02:06:38;;;;;;;;;;;23.90;48.70;;;;;;1499269;77;786;-60
2021/10/06 02:08:40;;;;;;;;;;;23.90;48.70;;;;;;1483165;80;732;-60
2021/10/06 02:10:42;;;;;;;;;;;23.90;48.60;;;;;;1483064;79;651;-59
2021/10/06 02:12:44;;;;;;;;;;;23.90;48.60;;;;;;1507289;77;722;-60
2021/10/06 02:14:46;;;;;;;;;;;23.90;48.60;;;;;;1505485;77;1121;-60
2021/10/06 02:16:47;;;;;;;;;;;23.80;48.70;;;;;;1507875;79;562;-60
2021/10/06 02:18:49;;;;;;;;;;;23.90;48.70;;;;;;1507889;77;1009;-58
2021/10/06 02:20:51;;;;;;;;;;;23.80;48.70;;;;;;1505758;77;713;-56
2021/10/06 02:22:53;;;;;;;;;;;23.80;48.60;;;;;;1483047;80;732;-59
2021/10/06 02:24:56;;;;;;;;;;;23.90;48.80;;;;;;1484407;77;1940;-58
2021/10/06 02:26:58;;;;;;;;;;;23.90;48.70;;;;;;1482970;80;677;-57
2021/10/06 02:28:59;;;;;;;;;;;23.90;48.90;;;;;;1483133;80;767;-60
2021/10/06 02:31:01;;;;;;;;;;;23.80;48.80;;;;;;1483056;80;871;-58
2021/10/06 02:33:03;;;;;;;;;;;23.80;48.80;;;;;;1490139;77;706;-61
2021/10/06 02:35:06;;;;;;;;;;;23.80;48.90;;;;;;1504482;77;1108;-61
2021/10/06 02:37:07;;;;;;;;;;;23.80;48.80;;;;;;1503501;78;718;-58
2021/10/06 02:39:09;;;;;;;;;;;23.90;48.90;;;;;;1503793;79;740;-60
2021/10/06 02:41:11;;;;;;;;;;;23.90;49.00;;;;;;1490419;77;717;-60
2021/10/06 02:43:13;;;;;;;;;;;23.90;48.90;;;;;;1493789;77;1945;-59
2021/10/06 02:45:15;;;;;;;;;;;24.00;48.90;;;;;;1506990;77;1123;-56
2021/10/06 02:47:17;;;;;;;;;;;24.10;49.00;;;;;;1507714;77;813;-59
2021/10/06 02:49:19;;;;;;;;;;;24.10;48.80;;;;;;1507221;77;658;-57
2021/10/06 02:51:21;;;;;;;;;;;24.20;48.60;;;;;;1502021;77;772;-58
2021/10/06 02:53:23;;;;;;;;;;;24.20;48.40;;;;;;1483081;79;743;-58
2021/10/06 02:55:25;;;;;;;;;;;24.30;48.40;;;;;;1483024;79;1122;-60
2021/10/06 02:57:27;;;;;;;;;;;24.30;48.20;;;;;;1483142;80;734;-57
2021/10/06 02:59:29;;;;;;;;;;;24.30;48.40;;;;;;1482919;80;786;-59
2021/10/06 03:01:31;;;;;;;;;;;24.20;48.40;;;;;;1485793;77;722;-57
2021/10/06 03:03:34;;;;;;;;;;;24.10;48.60;;;;;;1483080;80;1940;-59
2021/10/06 03:05:35;;;;;;;;;;;24.10;48.80;;;;;;1497046;77;1153;-59
2021/10/06 03:07:37;;;;;;;;;;;24.00;48.90;;;;;;1503812;79;731;-60
2021/10/06 03:09:39;;;;;;;;;;;24.00;49.00;;;;;;1503767;79;716;-58
2021/10/06 03:11:41;;;;;;;;;;;24.00;49.20;;;;;;1491576;77;803;-59
2021/10/06 03:13:43;;;;;;;;;;;23.90;49.20;;;;;;1483174;80;644;-59
2021/10/06 03:15:45;;;;;;;;;;;23.90;49.40;;;;;;1483205;79;1116;-58
2021/10/06 03:17:47;;;;;;;;;;;23.90;49.40;;;;;;1482993;80;799;-57
2021/10/06 03:19:49;;;;;;;;;;;23.90;49.50;;;;;;1483281;80;764;-59
2021/10/06 03:21:51;;;;;;;;;;;23.90;49.50;;;;;;1484633;77;729;-59
2021/10/06 03:23:53;;;;;;;;;;;23.90;49.60;;;;;;1483068;79;1938;-59
2021/10/06 03:25:55;;;;;;;;;;;23.90;49.70;;;;;;1483256;80;719;-60
2021/10/06 03:27:57;;;;;;;;;;;23.80;49.60;;;;;;1483076;77;743;-58
2021/10/06 03:29:59;;;;;;;;;;;23.80;49.60;;;;;;1483102;78;746;-58
2021/10/06 03:32:01;;;;;;;;;;;23.90;49.70;;;;;;1482973;80;734;-59
2021/10/06 03:34:02;;;;;;;;;;;23.90;49.70;;;;;;1505850;76;1168;-59
2021/10/06 03:36:04;;;;;;;;;;;23.80;49.60;;;;;;1540586;77;650;-58
2021/10/06 03:38:06;;;;;;;;;;;23.90;49.70;;;;;;1524762;77;719;-57
2021/10/06 03:40:09;;;;;;;;;;;23.90;49.70;;;;;;1484198;77;728;-57
2021/10/06 03:42:11;;;;;;;;;;;23.90;49.60;;;;;;1482999;80;743;-58
2021/10/06 03:44:12;;;;;;;;;;;24.00;49.50;;;;;;1483065;79;1946;-57
2021/10/06 03:46:14;;;;;;;;;;;24.00;49.50;;;;;;1482944;80;559;-58
2021/10/06 03:48:16;;;;;;;;;;;24.00;49.20;;;;;;1484541;77;768;-60
2021/10/06 03:50:19;;;;;;;;;;;24.20;49.00;;;;;;1482787;80;779;-60
2021/10/06 03:52:21;;;;;;;;;;;24.40;48.70;;;;;;1482937;80;712;-58
2021/10/06 03:54:23;;;;;;;;;;;24.50;48.40;;;;;;1483229;79;1125;-62
2021/10/06 03:56:25;;;;;;;;;;;24.50;48.20;;;;;;1484085;77;770;-60
2021/10/06 03:58:27;;;;;;;;;;;24.50;48.10;;;;;;1484386;77;830;-59
2021/10/06 04:00:29;;;;;;;;;;;24.50;48.10;;;;;;1483197;80;759;-60
2021/10/06 04:02:31;;;;;;;;;;;24.60;47.80;;;;;;1482652;80;754;-59
2021/10/06 04:04:33;;;;;;;;;;;24.60;47.70;;;;;;1492976;77;1935;-61
2021/10/06 04:06:35;;;;;;;;;;;24.60;47.70;;;;;;1518173;77;769;-59
2021/10/06 04:08:36;;;;;;;;;;;24.70;47.70;;;;;;1482821;80;690;-59
2021/10/06 04:10:38;;;;;;;;;;;24.70;47.50;;;;;;1483216;80;741;-57
2021/10/06 04:12:40;;;;;;;;;;;24.80;47.50;;;;;;1482844;80;746;-59
2021/10/06 04:14:42;;;;;;;;;;;24.80;47.50;;;;;;1483038;79;1151;-60
2021/10/06 04:16:44;;;;;;;;;;;24.70;47.50;;;;;;1485743;77;728;-61
2021/10/06 04:18:46;;;;;;;;;;;24.60;47.50;;;;;;1482826;80;785;-61
2021/10/06 04:20:48;;;;;;;;;;;24.70;47.60;;;;;;1483168;80;790;-59
2021/10/06 04:22:50;;;;;;;;;;;24.70;47.70;;;;;;1483075;79;734;-59
2021/10/06 04:24:51;;;;;;;;;;;24.80;47.60;;;;;;1482709;79;1939;-58
2021/10/06 04:26:53;;;;;;;;;;;24.70;47.70;;;;;;1484351;77;854;-57
2021/10/06 04:28:55;;;;;;;;;;;24.70;47.80;;;;;;1483168;80;744;-58
2021/10/06 04:30:57;;;;;;;;;;;24.70;47.90;;;;;;1482890;80;696;-61
2021/10/06 04:32:59;;;;;;;;;;;24.60;47.80;;;;;;1482985;79;670;-60
2021/10/06 04:35:01;;;;;;;;;;;24.60;48.00;;;;;;1485040;77;1120;-59
2021/10/06 04:37:03;;;;;;;;;;;24.50;48.10;;;;;;1484412;77;605;-61
2021/10/06 04:39:05;;;;;;;;;;;24.50;48.10;;;;;;1483166;80;786;-59
2021/10/06 04:41:07;;;;;;;;;;;24.50;48.10;;;;;;1482849;79;621;-60
2021/10/06 04:43:10;;;;;;;;;;;24.50;48.10;;;;;;1482942;80;757;-59
2021/10/06 04:45:12;;;;;;;;;;;24.50;48.20;;;;;;1483536;77;1929;-60
2021/10/06 04:47:14;;;;;;;;;;;24.50;48.20;;;;;;1482756;80;726;-59
2021/10/06 04:49:16;;;;;;;;;;;24.40;48.20;;;;;;1483141;80;733;-60
2021/10/06 04:51:18;;;;;;;;;;;24.50;48.30;;;;;;1483038;80;690;-59
2021/10/06 04:53:20;;;;;;;;;;;24.40;48.30;;;;;;1483123;77;731;-59
2021/10/06 04:55:22;;;;;;;;;;;24.50;48.50;;;;;;1484455;77;1082;-61
2021/10/06 04:57:24;;;;;;;;;;;24.50;48.60;;;;;;1483137;79;719;-58
2021/10/06 04:59:26;;;;;;;;;;;24.40;48.50;;;;;;1482885;80;685;-59
2021/10/06 05:01:28;;;;;;;;;;;24.50;48.60;;;;;;1483240;79;717;-58
2021/10/06 05:03:30;;;;;;;;;;;24.40;48.60;;;;;;1484109;77;739;-57
2021/10/06 05:05:31;;;;;;;;;;;24.50;48.60;;;;;;1521027;77;1962;-58
2021/10/06 05:07:33;;;;;;;;;;;24.50;48.60;;;;;;1540593;77;740;-59
2021/10/06 05:09:35;;;;;;;;;;;24.50;48.30;;;;;;1540261;77;794;-57
2021/10/06 05:11:37;;;;;;;;;;;24.50;48.10;;;;;;1540607;77;778;-59
2021/10/06 05:13:39;;;;;;;;;;;24.40;48.10;;;;;;1492768;77;792;-58
2021/10/06 05:15:41;;;;;;;;;;;24.40;48.00;;;;;;1482809;79;1094;-58
2021/10/06 05:17:43;;;;;;;;;;;24.40;47.90;;;;;;1483290;80;720;-58
2021/10/06 05:19:45;;;;;;;;;;;24.30;47.90;;;;;;1483182;80;760;-56
2021/10/06 05:21:47;;;;;;;;;;;24.30;47.90;;;;;;1482989;79;691;-58
2021/10/06 05:23:48;;;;;;;;;;;24.30;47.90;;;;;;1484524;77;1107;-57
2021/10/06 05:25:50;;;;;;;;;;;24.30;47.90;;;;;;1482890;80;1946;-58
2021/10/06 05:27:52;;;;;;;;;;;24.30;47.80;;;;;;1483340;80;627;-58
2021/10/06 05:29:54;;;;;;;;;;;24.30;47.70;;;;;;1483201;80;720;-58
2021/10/06 05:31:58;;;;;;;;;;;24.40;47.60;;;;;;1485276;77;798;-57
2021/10/06 05:33:59;;;;;;;;;;;24.40;47.40;;;;;;1485688;79;1657;-59
2021/10/06 05:36:03;;;;;;;;;;;24.30;47.40;;;;;;1501658;79;768;-59
2021/10/06 05:38:05;;;;;;;;;;;24.30;47.50;;;;;;1501255;79;788;-58
2021/10/06 05:40:07;;;;;;;;;;;24.30;47.40;;;;;;1497342;77;844;-58
2021/10/06 05:42:09;;;;;;;;;;;24.20;47.40;;;;;;1483073;80;1056;-58
2021/10/06 05:44:11;;;;;;;;;;;24.20;47.30;;;;;;1482916;79;1073;-59
2021/10/06 05:46:13;;;;;;;;;;;24.20;47.30;;;;;;1483252;79;1936;-56
2021/10/06 05:48:16;;;;;;;;;;;24.20;47.40;;;;;;1483693;77;772;-58
2021/10/06 05:50:18;;;;;;;;;;;24.10;47.40;;;;;;1484976;77;846;-59
2021/10/06 05:52:20;;;;;;;;;;;24.10;47.30;;;;;;1483164;80;724;-59
2021/10/06 05:54:22;;;;;;;;;;;24.10;47.30;;;;;;1482985;79;1097;-58
2021/10/06 05:56:23;;;;;;;;;;;24.10;47.40;;;;;;1483157;80;756;-57
2021/10/06 05:58:27;;;;;;;;;;;24.10;47.30;;;;;;1483341;80;747;-56
2021/10/06 06:00:29;;;;;;;;;;;24.00;47.20;;;;;;1483337;77;628;-59
2021/10/06 06:02:30;;;;;;;;;;;24.00;47.20;;;;;;1483129;79;719;-58
2021/10/06 06:04:32;;;;;;;;;;;24.00;47.20;;;;;;1486228;79;1959;-58
2021/10/06 06:06:34;;;;;;;;;;;24.00;47.30;;;;;;1501343;79;740;-58
2021/10/06 06:08:36;;;;;;;;;;;24.00;47.20;;;;;;1499695;77;556;-58
2021/10/06 06:10:38;;;;;;;;;;;24.00;47.20;;;;;;1484258;77;798;-56
2021/10/06 06:12:42;;;;;;;;;;;24.00;47.20;;;;;;1482993;80;678;-57
2021/10/06 06:14:44;;;;;;;;;;;23.90;46.80;;;;;;1483109;79;1666;-57
2021/10/06 06:16:46;;;;;;;;;;;24.00;46.30;;;;;;1482846;80;807;-58
2021/10/06 06:18:48;;;;;;;;;;;24.00;45.90;;;;;;1484457;77;730;-59
2021/10/06 06:20:50;;;;;;;;;;;23.90;45.60;;;;;;1483234;80;765;-56
2021/10/06 06:22:52;;;;;;;;;;;23.90;45.40;;;;;;1482652;80;788;-58
2021/10/06 06:24:54;;;;;;;;;;;23.80;45.00;;;;;;1483271;79;1944;-59
2021/10/06 06:26:55;;;;;;;;;;;23.90;45.00;;;;;;1484502;77;681;-59
2021/10/06 06:28:57;;;;;;;;;;;23.80;44.70;;;;;;1483518;77;767;-58
2021/10/06 06:30:59;;;;;;;;;;;23.80;44.70;;;;;;1490020;79;755;-55
2021/10/06 06:33:01;;;;;;;;;;;23.70;44.60;;;;;;1501206;79;736;-57
2021/10/06 06:35:04;;;;;;;;;;;23.70;44.50;;;;;;1501316;79;1156;-58
2021/10/06 06:37:05;;;;;;;;;;;23.70;44.40;;;;;;1498171;77;722;-58
2021/10/06 06:39:07;;;;;;;;;;;23.60;44.20;;;;;;1482863;80;745;-60
2021/10/06 06:41:09;;;;;;;;;;;23.60;44.20;;;;;;1483171;80;732;-56
2021/10/06 06:43:11;;;;;;;;;;;23.60;44.10;;;;;;1483106;80;713;-59
2021/10/06 06:45:13;;;;;;;;;;;23.60;44.10;;;;;;1482812;79;1933;-58
2021/10/06 06:47:15;;;;;;;;;;;23.60;44.10;;;;;;1485626;77;648;-58
2021/10/06 06:49:17;;;;;;;;;;;23.60;44.00;;;;;;1483361;79;705;-58
2021/10/06 06:51:18;;;;;;;;;;;23.60;44.00;;;;;;1482877;80;800;-58
2021/10/06 06:53:22;;;;;;;;;;;23.60;44.00;;;;;;1483175;80;750;-57
2021/10/06 06:55:24;;;;;;;;;;;23.50;44.00;;;;;;1482918;79;1824;-60
2021/10/06 06:57:26;;;;;;;;;;;23.50;44.00;;;;;;1484249;77;678;-59
2021/10/06 06:59:28;;;;;;;;;;;23.50;44.00;;;;;;1483283;80;577;-60
2021/10/06 07:01:29;;;;;;;;;;;23.50;44.00;;;;;;1482913;80;794;-59
2021/10/06 07:03:31;;;;;;;;;;;23.50;43.90;;;;;;1483016;80;777;-60
2021/10/06 07:05:33;;;;;;;;;;;23.50;43.90;;;;;;1522039;74;218765;-70
2021/10/06 07:07:35;;;;;;;;;;;23.50;44.10;;;;;;1558237;75;632;-70
2021/10/06 07:09:45;;;;;;;;;;;23.50;44.10;;;;;;1539749;75;714;-70
2021/10/06 07:11:40;;;;;;;;;;;23.50;44.00;;;;;;1555812;75;1135;-69
2021/10/06 07:13:42;;;;;;;;;;;23.50;44.10;;;;;;1576555;75;698;-70
2021/10/06 07:15:44;;;;;;;;;;;23.40;43.90;;;;;;1573009;75;1504;-71
2021/10/06 07:17:46;;;;;;;;;;;23.50;44.00;;;;;;1548358;75;745;-69
2021/10/06 07:19:48;;;;;;;;;;;23.40;43.90;;;;;;1572981;75;698;-69
2021/10/06 07:21:50;;;;;;;;;;;23.40;43.80;;;;;;1554036;76;731;-70
2021/10/06 07:23:52;;;;;;;;;;;23.50;44.10;;;;;;1549638;76;691;-71
2021/10/06 07:25:53;;;;;;;;;;;23.30;43.90;;;;;;1556370;75;1960;-70
2021/10/06 07:27:55;;;;;;;;;;;23.30;43.80;;;;;;1584742;75;724;-70
2021/10/06 07:29:57;;;;;;;;;;;23.40;43.90;;;;;;1536958;76;704;-71
2021/10/06 07:32:00;;;;;;;;;;;23.40;43.80;;;;;;1556055;76;725;-70
2021/10/06 07:34:02;;;;;;;;;;;23.40;43.80;;;;;;1551165;76;718;-70
2021/10/06 07:36:04;;;;;;;;;;;23.40;43.90;;;;;;1558892;76;1142;-70
2021/10/06 07:38:06;;;;;;;;;;;23.30;43.70;;;;;;1560762;76;693;-71
2021/10/06 07:40:09;;;;;;;;;;;23.40;43.70;;;;;;1558817;76;709;-71
2021/10/06 07:42:10;;;;;;;;;;;23.40;43.80;;;;;;1559121;76;686;-70
2021/10/06 07:44:12;;;;;;;;;;;23.30;43.70;;;;;;1554506;76;728;-71
2021/10/06 07:46:14;;;;;;;;;;;23.40;43.60;;;;;;1559235;76;1944;-70
2021/10/06 07:48:16;;;;;;;;;;;23.40;43.60;;;;;;1548411;76;695;-71
2021/10/06 07:50:18;;;;;;;;;;;23.40;43.70;;;;;;1560597;76;698;-72
2021/10/06 07:52:20;;;;;;;;;;;23.40;43.60;;;;;;1557670;76;723;-71
2021/10/06 07:54:22;;;;;;;;;;;23.40;43.60;;;;;;1541749;76;749;-70
2021/10/06 07:56:24;;;;;;;;;;;23.40;43.70;;;;;;1559680;76;1107;-70
2021/10/06 07:58:34;;;;;;;;;;;23.40;43.60;;;;;;1560584;76;776;-70
2021/10/06 08:00:36;;;;;;;;;;;23.40;43.50;;;;;;1560557;76;729;-70
2021/10/06 08:02:38;;;;;;;;;;;23.40;43.50;;;;;;1560399;76;726;-71
2021/10/06 08:04:40;;;;;;;;;;;23.40;43.40;;;;;;1559737;76;648;-70
2021/10/06 08:06:42;;;;;;;;;;;23.50;43.60;;;;;;1554960;76;1959;-71
2021/10/06 08:08:44;;;;;;;;;;;23.50;43.40;;;;;;1560408;76;720;-71
2021/10/06 08:10:45;;;;;;;;;;;23.40;43.30;;;;;;1560507;76;744;-70
2021/10/06 08:12:47;;;;;;;;;;;23.50;43.50;;;;;;1557445;76;1009;-70
2021/10/06 08:14:50;;;;;;;;;;;23.50;43.40;;;;;;1559549;76;724;-68
2021/10/06 08:16:51;;;;;;;;;;;23.50;43.40;;;;;;1559246;76;688;-71
2021/10/06 08:18:53;;;;;;;;;;;23.50;43.30;;;;;;1558170;76;721;-70
2021/10/06 08:20:56;;;;;;;;;;;23.50;43.60;;;;;;1559407;76;670;-70
2021/10/06 08:22:58;;;;;;;;;;;23.50;43.60;;;;;;1559215;76;720;-70
2021/10/06 08:24:59;;;;;;;;;;;23.50;43.60;;;;;;1560464;76;1090;-69
2021/10/06 08:27:01;;;;;;;;;;;23.60;43.60;;;;;;1560636;76;1978;-71
2021/10/06 08:29:03;;;;;;;;;;;23.60;43.60;;;;;;1557972;76;755;-71
2021/10/06 08:31:05;;;;;;;;;;;23.60;43.50;;;;;;1557924;76;723;-71
2021/10/06 08:33:07;;;;;;;;;;;23.70;43.60;;;;;;1560635;76;735;-72
2021/10/06 08:35:09;;;;;;;;;;;23.70;43.40;;;;;;1557446;76;1191;-71
2021/10/06 08:37:11;;;;;;;;;;;23.80;43.30;;;;;;1556580;76;704;-71
2021/10/06 08:39:13;;;;;;;;;;;23.70;43.00;;;;;;1558104;76;789;-71
2021/10/06 08:41:14;;;;;;;;;;;23.80;42.70;;;;;;1556832;76;718;-70
2021/10/06 08:43:16;;;;;;;;;;;23.70;42.80;;;;;;1557800;76;675;-70
2021/10/06 08:45:18;;;;;;;;;;;23.70;42.80;;;;;;1558189;76;1095;-71
2021/10/06 08:47:21;;;;;;;;;;;23.70;42.60;;;;;;1559221;76;1947;-71
2021/10/06 08:49:22;;;;;;;;;;;23.70;42.50;;;;;;1556412;76;729;-70
2021/10/06 08:51:24;;;;;;;;;;;23.70;42.50;;;;;;1557401;76;728;-70
2021/10/06 08:53:26;;;;;;;;;;;23.70;42.30;;;;;;1559872;76;752;-70
2021/10/06 08:55:28;;;;;;;;;;;23.70;42.30;;;;;;1557392;76;1174;-70
2021/10/06 08:57:30;;;;;;;;;;;23.70;42.20;;;;;;1555111;76;720;-70
2021/10/06 08:59:32;;;;;;;;;;;23.80;42.10;;;;;;1553610;76;736;-70
2021/10/06 09:01:34;;;;;;;;;;;23.70;42.30;;;;;;1559705;76;720;-71
2021/10/06 09:03:36;;;;;;;;;;;23.70;42.20;;;;;;1577726;75;723;-72
2021/10/06 09:05:38;;;;;;;;;;;23.70;42.20;;;;;;1560800;75;1936;-71
2021/10/06 09:07:59;;;;;;;;;;;23.70;42.20;;;;;;1575934;74;784;-71
2021/10/06 09:10:02;;;;;;;;;;;23.70;42.20;;;;;;1535344;76;723;-70
2021/10/06 09:12:06;;;;;;;;;;;23.70;42.20;;;;;;1534680;77;969;-70
2021/10/06 09:14:08;;;;;;;;;;;23.70;42.10;;;;;;1542105;76;1115;-70
2021/10/06 09:16:10;;;;;;;;;;;23.70;42.20;;;;;;1538297;76;1161;-71
2021/10/06 09:18:13;;;;;;;;;;;23.70;42.30;;;;;;1533257;77;658;-70
2021/10/06 09:20:15;;;;;;;;;;;23.80;42.10;;;;;;1535639;76;988;-70
2021/10/06 09:22:17;;;;;;;;;;;23.70;42.30;;;;;;1541422;76;662;-69
2021/10/06 09:24:19;;;;;;;;;;;23.70;42.20;;;;;;1564338;75;748;-70
2021/10/06 09:26:21;;;;;;;;;;;23.70;42.30;;;;;;1575634;74;1935;-70
2021/10/06 09:28:30;;;;;;;;;;;23.70;42.20;;;;;;1549499;75;727;-70
2021/10/06 09:30:32;;;;;;;;;;;23.70;42.20;;;;;;1562621;75;716;-70
2021/10/06 09:32:35;;;;;;;;;;;23.70;42.20;;;;;;1569172;75;719;-70
2021/10/06 09:34:37;;;;;;;;;;;23.70;42.30;;;;;;1530898;76;714;-71
2021/10/06 09:36:39;;;;;;;;;;;23.80;42.30;;;;;;1565501;76;1121;-71
2021/10/06 09:38:43;;;;;;;;;;;23.60;42.10;;;;;;1558015;76;785;-71
2021/10/06 09:40:45;;;;;;;;;;;23.70;42.30;;;;;;1567484;76;981;-70
2021/10/06 09:42:59;;;;;;;;;;;23.70;42.40;;;;;;1550979;76;745;-70
2021/10/06 09:45:02;;;;;;;;;;;23.70;42.30;;;;;;1584376;74;1138;-70
2021/10/06 09:47:03;;;;;;;;;;;23.70;42.50;;;;;;1572570;75;1922;-70
2021/10/06 09:49:07;;;;;;;;;;;23.60;42.30;;;;;;1559243;75;745;-68
2021/10/06 09:51:09;;;;;;;;;;;23.60;42.10;;;;;;1532226;77;1107;-70
2021/10/06 09:53:12;;;;;;;;;;;23.60;42.10;;;;;;1549989;75;710;-71
2021/10/06 09:55:14;;;;;;;;;;;23.70;42.40;;;;;;1573135;75;1113;-71
2021/10/06 09:57:30;;;;;;;;;;;23.70;42.40;;;;;;1555695;74;730;-69
2021/10/06 09:59:32;;;;;;;;;;;23.70;42.50;;;;;;1558030;74;1172;-69
2021/10/06 10:01:36;;;;;;;;;;;23.70;42.30;;;;;;1541117;76;728;-70
2021/10/06 10:03:38;;;;;;;;;;;23.70;42.10;;;;;;1558092;76;1160;-71
2021/10/06 10:05:40;;;;;;;;;;;23.70;42.30;;;;;;1556825;76;1170;-72
2021/10/06 10:07:42;;;;;;;;;;;23.70;42.20;;;;;;1558446;76;1902;-71
2021/10/06 10:09:44;;;;;;;;;;;23.70;42.00;;;;;;1552643;76;687;-71
2021/10/06 10:11:46;;;;;;;;;;;23.70;42.00;;;;;;1555469;76;675;-71
2021/10/06 10:13:48;;;;;;;;;;;23.80;42.10;;;;;;1524266;77;1224;-72
2021/10/06 10:15:50;;;;;;;;;;;23.70;42.00;;;;;;1556912;76;1142;-71
2021/10/06 10:17:53;;;;;;;;;;;23.70;41.80;;;;;;1558235;76;649;-71
2021/10/06 10:19:58;;;;;;;;;;;23.70;41.90;;;;;;1558493;76;727;-72
2021/10/06 10:22:02;;;;;;;;;;;23.60;42.00;;;;;;1540481;76;722;-71
2021/10/06 10:24:19;;;;;;;;;;;23.70;42.10;;;;;;1556102;76;703;-71
2021/10/06 10:26:24;;;;;;;;;;;23.70;42.00;;;;;;1528152;76;1944;-68
2021/10/06 10:28:28;;;;;;;;;;;23.70;42.00;;;;;;1558102;76;686;-71
2021/10/06 10:30:33;;;;;;;;;;;23.60;42.10;;;;;;1520950;77;1243;-71
2021/10/06 10:32:43;;;;;;;;;;;23.70;42.20;;;;;;1556323;76;756;-71
2021/10/06 10:34:59;;;;;;;;;;;23.70;42.00;;;;;;1556193;76;878;-72
2021/10/06 10:37:00;;;;;;;;;;;23.70;42.10;;;;;;1557776;76;732;-72
2021/10/06 10:39:04;;;;;;;;;;;23.70;42.00;;;;;;1554028;76;648;-71
2021/10/06 10:41:06;;;;;;;;;;;23.70;41.90;;;;;;1557908;76;717;-71
2021/10/06 10:43:12;;;;;;;;;;;23.70;41.90;;;;;;1555605;76;727;-70
2021/10/06 10:45:32;;;;;;;;;;;23.70;41.80;;;;;;1557520;76;1134;-71
2021/10/06 10:47:35;;;;;;;;;;;23.70;41.80;;;;;;1555468;76;1936;-71
2021/10/06 10:49:45;;;;;;;;;;;23.70;41.80;;;;;;1545733;76;997;-69
2021/10/06 10:51:47;;;;;;;;;;;23.70;41.90;;;;;;1558252;76;712;-70
2021/10/06 10:53:54;;;;;;;;;;;23.80;41.80;;;;;;1555639;76;685;-70
2021/10/06 10:55:58;;;;;;;;;;;23.80;42.00;;;;;;1558392;76;1114;-74
2021/10/06 10:58:18;;;;;;;;;;;23.80;41.90;;;;;;1555837;76;1498;-72
2021/10/06 11:00:30;;;;;;;;;;;23.80;41.70;;;;;;1539458;76;676;-71
2021/10/06 11:02:41;;;;;;;;;;;23.70;41.40;;;;;;1552459;76;812;-71
2021/10/06 11:04:39;;;;;;;;;;;23.70;41.50;;;;;;1556961;76;1126;-70
2021/10/06 11:06:43;;;;;;;;;;;23.70;41.50;;;;;;1515214;77;1957;-70
2021/10/06 11:08:44;;;;;;;;;;;23.70;41.30;;;;;;1553299;76;1140;-70
2021/10/06 11:10:46;;;;;;;;;;;23.60;41.00;;;;;;1558016;76;746;-69
2021/10/06 11:13:03;;;;;;;;;;;23.60;40.90;;;;;;1556301;76;688;-69
2021/10/06 11:15:16;;;;;;;;;;;23.60;40.90;;;;;;1555512;76;1173;-71
2021/10/06 11:17:18;;;;;;;;;;;23.60;40.90;;;;;;1556504;76;776;-70
2021/10/06 11:19:40;;;;;;;;;;;23.60;40.50;;;;;;1556036;76;669;-70
2021/10/06 11:21:42;;;;;;;;;;;23.60;39.80;;;;;;1556362;76;701;-68
2021/10/06 11:23:44;;;;;;;;;;;23.60;40.00;;;;;;1556617;76;683;-70
2021/10/06 11:25:46;;;;;;;;;;;23.50;40.20;;;;;;1556680;76;1142;-69
2021/10/06 11:27:49;;;;;;;;;;;23.50;40.00;;;;;;1556740;76;1930;-70
2021/10/06 11:29:51;;;;;;;;;;;23.50;40.20;;;;;;1557428;76;714;-70
2021/10/06 11:31:53;;;;;;;;;;;23.50;40.20;;;;;;1555199;76;689;-69
2021/10/06 11:33:55;;;;;;;;;;;23.50;40.50;;;;;;1530661;77;1161;-70
2021/10/06 11:36:13;;;;;;;;;;;23.60;40.30;;;;;;1576216;74;1235;-70
2021/10/06 11:38:15;;;;;;;;;;;23.50;40.00;;;;;;1569772;75;743;-67
2021/10/06 11:40:17;;;;;;;;;;;23.50;40.20;;;;;;1543609;76;1230;-69
2021/10/06 11:42:19;;;;;;;;;;;23.50;40.40;;;;;;1604507;73;662;-70
2021/10/06 11:44:23;;;;;;;;;;;23.50;40.20;;;;;;1608041;73;674;-70
2021/10/06 11:46:27;;;;;;;;;;;23.50;40.20;;;;;;1606388;73;1135;-71
2021/10/06 11:48:29;;;;;;;;;;;23.50;40.20;;;;;;1605556;73;1079;-70
2021/10/06 11:50:38;;;;;;;;;;;23.50;39.50;;;;;;1581021;74;739;-69
2021/10/06 11:52:40;;;;;;;;;;;23.50;39.50;;;;;;1610312;73;686;-70
2021/10/06 11:54:42;;;;;;;;;;;23.50;39.30;;;;;;1610256;73;727;-70
2021/10/06 11:56:44;;;;;;;;;;;23.50;39.40;;;;;;1609957;73;1116;-71
2021/10/06 11:58:46;;;;;;;;;;;23.50;39.50;;;;;;1568731;74;1244;-70
2021/10/06 12:00:50;;;;;;;;;;;23.50;39.40;;;;;;1607580;73;749;-70
2021/10/06 12:02:57;;;;;;;;;;;23.50;38.20;;;;;;1602928;73;1084;-69
2021/10/06 12:05:00;;;;;;;;;;;23.50;39.00;;;;;;1608685;73;1138;-70
2021/10/06 12:07:02;;;;;;;;;;;23.40;38.80;;;;;;1580663;74;1922;-72
2021/10/06 12:09:09;;;;;;;;;;;23.40;38.90;;;;;;1601546;73;819;-71
2021/10/06 12:11:08;;;;;;;;;;;23.40;38.90;;;;;;1602568;73;983;-71